Calvi-Sainte-Catherine Airport

Airport
ICAO code: 
LFKC
IATA Code: 
CLY
Summary
ICAO Region: 
EUR
Territory: 
Location: 
, Corse
Serving: 
Calvi
Elevation: 
209 ft
Coordinates: 
Aerial View: 
42° 31' 50.711" N, 8° 47' 35.48" E
Metar
Observation
LFKC 060400Z AUTO 19002KT 9999 FEW060/// BKN088/// BKN100/// ///CB 07/04 Q1003 TEMPO SHRA
Station
Calvi
Date/Time
2021-12-06 04:00:00
Wind direction
190°
Wind speed
02 kts
Lowest cloud amount
few clouds
Temperature
7°C
Dew point
4°C
Humidity
81%
QNH
1003 hPa
Weather condition
n/a

Runways

Designator Length Width Surface Rops
18/36 2310 40 CON Yes/Yes
Airport map: 
Aerial View: 

SKYbrary Partners:

Safety knowledge contributed by: